CheckWX is a tool to help pilots better visualize weather data.  It is not intended as a substitute for an official pre-flight weather briefing.

12:39:21 UTC

KHZR METAR
False River Regional Airport
New Roads, Louisiana, USA
Current

42 mins ago

KHZR 161157Z AUTO 33004KT 7SM -RA SCT005 BKN023 OVC050 21/21 A2994 RMK AO2 P0030
Observed
Oct-16 @ 11:57 UTC
Wind
  • 330° at 4 KTS
Visibility
7 SM
Flight Rules
MVFR
Conditions
Light Rain
Cloud Levels
  • Scattered at 500' AGL
  • Broken at 2,300' AGL
  • Overcast at 5,000' AGL
Temperature
21°C / 70°F
Dewpoint
21°C / 70°F
Humidity
100%
Altimeter
29.94" Hg
Pressure
1013.92 hPa
Current Rain
0.3"
Previous

1 hour ago

KHZR 161135Z AUTO 34007KT 7SM +RA SCT005 SCT011 OVC022 22/22 A2993 RMK AO2 P0004
Observed
Oct-16 @ 11:35 UTC
Wind
  • 340° at 7 KTS
Visibility
7 SM
Flight Rules
MVFR
Conditions
Heavy Rain
Cloud Levels
  • Scattered at 500' AGL
  • Scattered at 1,100' AGL
  • Overcast at 2,200' AGL
Temperature
22°C / 72°F
Dewpoint
22°C / 72°F
Humidity
100%
Altimeter
29.93" Hg
Pressure
1013.52 hPa
Current Rain
0.04"
Previous

2 hours ago

KHZR 161055Z AUTO 00000KT 10SM SCT017 SCT039 SCT055 22/22 A2989 RMK AO2 LTG DSNT SE P0003
Observed
Oct-16 @ 10:55 UTC
Visibility
10 SM
Flight Rules
VFR
Cloud Levels
  • Scattered at 1,700' AGL
  • Scattered at 3,900' AGL
  • Scattered at 5,500' AGL
Temperature
22°C / 72°F
Dewpoint
22°C / 72°F
Humidity
100%
Altimeter
29.89" Hg
Pressure
1012.22 hPa
Current Rain
0.03"